This is the latest recevied weather packets stored in our database for station/object K9TLD. If no packets are shown the sender has not sent any weather packets the latest 10 day(s).
| Time | Temp. | Humidity | Pressure | Rain* | Wind** | Luminosity | Snow |
|---|---|---|---|---|---|---|---|
| 1778077673 | 8.89° C | 69% | 1015.1 hPa | 0 mm | - | 498 W/m² | - |
| 1778077371 | 8.33° C | 72% | 1015.1 hPa | 0 mm | - | 484 W/m² | - |
| 1778077069 | 7.78° C | 74% | 1015 hPa | 0 mm | - | 471 W/m² | - |
| 1778076767 | 7.78° C | 74% | 1015 hPa | 0 mm | - | 454 W/m² | - |
| 1778076464 | 8.89° C | 72% | 1015 hPa | 0 mm | - | 443 W/m² | - |
| 1778076161 | 8.33° C | 74% | 1015 hPa | 0 mm | - | 427 W/m² | - |
| 1778075858 | 8.33° C | 73% | 1015.1 hPa | 0 mm | - | 412 W/m² | - |
| 1778075554 | 8.33° C | 74% | 1015.1 hPa | 0 mm | - | 399 W/m² | - |
| 1778075251 | 8.33° C | 73% | 1015.4 hPa | 0 mm | - | 380 W/m² | - |
| 1778074947 | 7.78° C | 74% | 1015.1 hPa | 0 mm | - | 317 W/m² | - |
| 1778074645 | 7.78° C | 74% | 1015.2 hPa | 0 mm | - | 357 W/m² | - |
| 1778074341 | 7.78° C | 74% | 1015.2 hPa | 0 mm | - | 346 W/m² | - |
| 1778074038 | 6.67° C | 77% | 1015.2 hPa | 0 mm | - | 295 W/m² | - |
| 1778073735 | 7.22° C | 76% | 1015.3 hPa | 0 mm | - | 211 W/m² | - |
| 1778073433 | 7.22° C | 75% | 1015.1 hPa | 0 mm | - | 198 W/m² | - |
| 1778073129 | 7.78° C | 74% | 1015.2 hPa | 0 mm | - | 103 W/m² | - |
| 1778072826 | 7.22° C | 76% | 1014.8 hPa | 0 mm | - | 224 W/m² | - |
| 1778072523 | 7.78° C | 74% | 1014.7 hPa | 0 mm | - | 80 W/m² | - |
| 1778072221 | 7.78° C | 73% | 1014.6 hPa | 0 mm | - | 166 W/m² | - |
| 1778071919 | 7.78° C | 73% | 1014.7 hPa | 0 mm | - | 90 W/m² | - |
| 1778071616 | 7.22° C | 75% | 1014.6 hPa | 0 mm | - | 220 W/m² | - |
| 1778071314 | 7.22° C | 75% | 1014.5 hPa | 0 mm | - | 186 W/m² | - |
| 1778071011 | 7.78° C | 75% | 1014.5 hPa | 0 mm | - | 101 W/m² | - |
| 1778070710 | 6.67° C | 77% | 1014.3 hPa | 0 mm | - | 135 W/m² | - |
| 1778070406 | 6.67° C | 78% | 1014.2 hPa | 0 mm | - | 147 W/m² | - |
* Rain latest hour (hover to see other rain measurements)
** Current wind speed in m/s (hover to see current wind gust speed)